createdAt,value
2023-04-22T00:00:36.616Z,534.00
2023-04-22T00:01:36.589Z,533.00
2023-04-22T00:02:36.744Z,533.00
2023-04-22T00:03:36.993Z,533.00
2023-04-22T00:04:37.112Z,532.00
2023-04-22T00:05:36.789Z,532.00
2023-04-22T00:06:36.829Z,532.00
2023-04-22T00:07:36.860Z,532.00
2023-04-22T00:08:36.906Z,532.00
2023-04-22T00:09:37.136Z,533.00
2023-04-22T00:10:36.984Z,532.00
2023-04-22T00:11:37.027Z,530.00
2023-04-22T00:12:37.055Z,530.00
2023-04-22T00:13:37.156Z,530.00
2023-04-22T00:14:37.183Z,531.00
2023-04-22T00:15:37.200Z,531.00
2023-04-22T00:16:37.336Z,531.00
2023-04-22T00:17:37.466Z,534.00
2023-04-22T00:18:37.300Z,533.00
2023-04-22T00:19:37.657Z,533.00
2023-04-22T00:20:37.382Z,536.00
2023-04-22T00:21:37.413Z,536.00
2023-04-22T00:22:37.453Z,535.00
2023-04-22T00:23:37.500Z,536.00
2023-04-22T00:24:37.489Z,534.00
2023-04-22T00:25:37.539Z,533.00
2023-04-22T00:26:37.546Z,531.00
2023-04-22T00:27:37.561Z,532.00
2023-04-22T00:28:37.622Z,532.00
2023-04-22T00:29:37.808Z,532.00
2023-04-22T00:30:37.634Z,534.00
2023-04-22T00:31:37.710Z,533.00
2023-04-22T00:32:37.681Z,534.00
2023-04-22T00:33:37.619Z,535.00
2023-04-22T00:34:37.615Z,534.00
2023-04-22T00:35:37.634Z,533.00
2023-04-22T00:36:37.624Z,533.00
2023-04-22T00:37:37.664Z,534.00
2023-04-22T00:38:37.602Z,532.00
2023-04-22T00:39:37.945Z,533.00
2023-04-22T00:40:37.640Z,531.00
2023-04-22T00:41:37.648Z,530.00
2023-04-22T00:42:37.673Z,532.00
2023-04-22T00:43:37.641Z,532.00
2023-04-22T00:44:37.623Z,534.00
2023-04-22T00:45:37.653Z,533.00
2023-04-22T00:46:37.712Z,532.00
2023-04-22T00:47:37.638Z,532.00
2023-04-22T00:48:37.637Z,531.00
2023-04-22T00:49:38.074Z,535.00
2023-04-22T00:50:37.707Z,534.00
2023-04-22T00:51:37.712Z,535.00
2023-04-22T00:52:37.686Z,533.00
2023-04-22T00:53:37.707Z,532.00
2023-04-22T00:54:37.693Z,532.00
2023-04-22T00:55:37.718Z,534.00
2023-04-22T00:56:37.694Z,534.00
2023-04-22T00:57:37.681Z,530.00
2023-04-22T00:58:37.655Z,531.00
2023-04-22T00:59:37.893Z,529.00
2023-04-22T01:00:37.727Z,529.00
2023-04-22T01:01:37.670Z,531.00
2023-04-22T01:02:37.778Z,529.00
2023-04-22T01:03:37.878Z,529.00
2023-04-22T01:04:37.670Z,529.00
2023-04-22T01:05:37.668Z,531.00
2023-04-22T01:06:37.638Z,531.00
2023-04-22T01:07:37.646Z,531.00
2023-04-22T01:08:37.656Z,529.00
2023-04-22T01:09:37.892Z,528.00
2023-04-22T01:10:37.661Z,525.00
2023-04-22T01:11:37.657Z,525.00
2023-04-22T01:12:37.648Z,528.00
2023-04-22T01:13:37.640Z,528.00
2023-04-22T01:14:37.655Z,529.00
2023-04-22T01:15:37.671Z,528.00
2023-04-22T01:16:37.728Z,528.00
2023-04-22T01:17:37.699Z,526.00
2023-04-22T01:18:37.617Z,527.00
2023-04-22T01:19:38.025Z,530.00
2023-04-22T01:20:37.628Z,530.00
2023-04-22T01:21:37.623Z,529.00
2023-04-22T01:22:37.620Z,528.00
2023-04-22T01:23:37.610Z,527.00
2023-04-22T01:24:37.600Z,527.00
2023-04-22T01:25:37.636Z,527.00
2023-04-22T01:26:37.624Z,530.00
2023-04-22T01:27:37.629Z,528.00
2023-04-22T01:28:37.592Z,530.00
2023-04-22T01:29:37.859Z,528.00
2023-04-22T01:30:37.619Z,525.00
2023-04-22T01:31:37.668Z,525.00
2023-04-22T01:32:37.672Z,524.00
2023-04-22T01:33:37.596Z,524.00
2023-04-22T01:34:37.618Z,525.00
2023-04-22T01:35:37.637Z,524.00
2023-04-22T01:36:37.616Z,524.00
2023-04-22T01:37:37.658Z,525.00
2023-04-22T01:38:37.633Z,524.00
2023-04-22T01:39:37.955Z,522.00
2023-04-22T01:40:37.635Z,522.00
2023-04-22T01:41:37.639Z,526.00
2023-04-22T01:42:37.677Z,527.00
2023-04-22T01:43:37.691Z,529.00
2023-04-22T01:44:37.663Z,527.00
2023-04-22T01:45:37.726Z,526.00
2023-04-22T01:46:37.803Z,525.00
2023-04-22T01:47:37.732Z,522.00
2023-04-22T01:48:37.719Z,522.00
2023-04-22T01:49:38.126Z,520.00
2023-04-22T01:50:37.774Z,518.00
2023-04-22T01:51:37.740Z,517.00
2023-04-22T01:52:37.744Z,517.00
2023-04-22T01:53:37.772Z,520.00
2023-04-22T01:54:37.778Z,521.00
2023-04-22T01:55:37.808Z,521.00
2023-04-22T01:56:37.798Z,520.00
2023-04-22T01:57:37.818Z,518.00
2023-04-22T01:58:37.834Z,517.00
2023-04-22T01:59:38.026Z,518.00
2023-04-22T02:00:37.849Z,517.00
2023-04-22T02:01:37.867Z,518.00
2023-04-22T02:02:37.913Z,518.00
2023-04-22T02:03:37.876Z,515.00
2023-04-22T02:04:38.020Z,515.00
2023-04-22T02:05:37.874Z,516.00
2023-04-22T02:06:37.907Z,517.00
2023-04-22T02:07:37.908Z,516.00
2023-04-22T02:08:37.903Z,516.00
2023-04-22T02:09:38.164Z,518.00
2023-04-22T02:10:37.953Z,518.00
2023-04-22T02:11:37.954Z,519.00
2023-04-22T02:12:37.964Z,518.00
2023-04-22T02:13:37.962Z,518.00
2023-04-22T02:14:37.984Z,517.00
2023-04-22T02:15:38.038Z,517.00
2023-04-22T02:16:38.046Z,514.00
2023-04-22T02:17:38.140Z,514.00
2023-04-22T02:18:38.075Z,515.00
2023-04-22T02:19:38.600Z,517.00
2023-04-22T02:20:38.084Z,518.00
2023-04-22T02:21:38.099Z,517.00
2023-04-22T02:22:38.067Z,519.00
2023-04-22T02:23:38.095Z,519.00
2023-04-22T02:24:38.114Z,518.00
2023-04-22T02:25:38.151Z,518.00
2023-04-22T02:26:38.145Z,517.00
2023-04-22T02:27:38.146Z,518.00
2023-04-22T02:28:38.179Z,518.00
2023-04-22T02:29:38.324Z,522.00
2023-04-22T02:30:38.229Z,521.00
2023-04-22T02:31:38.260Z,522.00
2023-04-22T02:32:38.339Z,519.00
2023-04-22T02:33:38.277Z,519.00
2023-04-22T02:34:38.308Z,516.00
2023-04-22T02:35:38.304Z,516.00
2023-04-22T02:36:38.356Z,516.00
2023-04-22T02:37:38.370Z,516.00
2023-04-22T02:38:38.416Z,513.00
2023-04-22T02:39:38.795Z,513.00
2023-04-22T02:40:38.580Z,514.00
2023-04-22T02:41:38.503Z,517.00
2023-04-22T02:42:38.552Z,517.00
2023-04-22T02:43:38.535Z,515.00
2023-04-22T02:44:38.552Z,516.00
2023-04-22T02:45:38.601Z,516.00
2023-04-22T02:46:38.672Z,515.00
2023-04-22T02:47:38.661Z,517.00
2023-04-22T02:48:38.658Z,517.00
2023-04-22T02:49:38.948Z,513.00
2023-04-22T02:50:38.701Z,514.00
2023-04-22T02:51:38.725Z,515.00
2023-04-22T02:52:38.723Z,517.00
2023-04-22T02:53:38.769Z,519.00
2023-04-22T02:54:38.790Z,519.00
2023-04-22T02:55:38.802Z,519.00
2023-04-22T02:56:38.842Z,520.00
2023-04-22T02:57:38.850Z,519.00
2023-04-22T02:58:38.860Z,517.00
2023-04-22T02:59:39.106Z,517.00
2023-04-22T03:00:38.919Z,517.00
2023-04-22T03:01:38.907Z,515.00
2023-04-22T03:02:39.830Z,513.00
2023-04-22T03:03:39.206Z,511.00
2023-04-22T03:04:39.045Z,513.00
2023-04-22T03:05:39.075Z,511.00
2023-04-22T03:06:39.071Z,512.00
2023-04-22T03:07:39.108Z,510.00
2023-04-22T03:08:39.155Z,508.00
2023-04-22T03:09:39.423Z,506.00
2023-04-22T03:10:39.213Z,508.00
2023-04-22T03:11:39.224Z,508.00
2023-04-22T03:12:39.232Z,508.00
2023-04-22T03:13:39.300Z,509.00
2023-04-22T03:14:39.327Z,508.00
2023-04-22T03:15:39.361Z,506.00
2023-04-22T03:16:39.409Z,505.00
2023-04-22T03:17:39.406Z,506.00
2023-04-22T03:18:39.430Z,509.00
2023-04-22T03:19:39.772Z,508.00
2023-04-22T03:20:39.480Z,508.00
2023-04-22T03:21:39.479Z,506.00
2023-04-22T03:22:39.503Z,506.00
2023-04-22T03:23:39.549Z,506.00
2023-04-22T03:24:39.565Z,504.00
2023-04-22T03:25:39.614Z,504.00
2023-04-22T03:26:39.624Z,504.00
2023-04-22T03:27:39.629Z,504.00
2023-04-22T03:28:39.688Z,506.00
2023-04-22T03:29:39.846Z,506.00
2023-04-22T03:30:39.741Z,505.00
2023-04-22T03:31:39.837Z,507.00
2023-04-22T03:32:39.836Z,508.00
2023-04-22T03:33:39.842Z,507.00
2023-04-22T03:34:39.860Z,509.00
2023-04-22T03:35:39.940Z,511.00
2023-04-22T03:36:39.977Z,511.00
2023-04-22T03:37:39.969Z,510.00
2023-04-22T03:38:40.030Z,512.00
2023-04-22T03:39:40.312Z,513.00
2023-04-22T03:40:40.124Z,512.00
2023-04-22T03:41:40.137Z,512.00
2023-04-22T03:42:40.159Z,510.00
2023-04-22T03:43:40.261Z,508.00
2023-04-22T03:44:40.246Z,511.00
2023-04-22T03:45:40.330Z,511.00
2023-04-22T03:46:40.351Z,509.00
2023-04-22T03:47:40.404Z,509.00
2023-04-22T03:48:40.429Z,509.00
2023-04-22T03:49:40.868Z,508.00
2023-04-22T03:50:40.566Z,510.00
2023-04-22T03:51:40.546Z,513.00
2023-04-22T03:52:40.605Z,513.00
2023-04-22T03:53:40.642Z,511.00
2023-04-22T03:54:40.661Z,511.00
2023-04-22T03:55:40.746Z,510.00
2023-04-22T03:56:40.756Z,508.00
2023-04-22T03:57:40.768Z,507.00
2023-04-22T03:58:40.834Z,507.00
2023-04-22T03:59:41.155Z,506.00
2023-04-22T04:00:40.935Z,506.00
2023-04-22T04:01:40.952Z,502.00
2023-04-22T04:02:41.175Z,499.00
2023-04-22T04:03:41.296Z,503.00
2023-04-22T04:04:41.273Z,505.00
2023-04-22T04:05:41.204Z,505.00
2023-04-22T04:06:41.177Z,504.00
2023-04-22T04:07:41.215Z,504.00
2023-04-22T04:08:41.282Z,503.00
2023-04-22T04:09:41.652Z,502.00
2023-04-22T04:10:41.347Z,503.00
2023-04-22T04:11:41.405Z,504.00
2023-04-22T04:12:41.429Z,507.00
2023-04-22T04:13:41.475Z,505.00
2023-04-22T04:14:41.533Z,506.00
2023-04-22T04:15:41.680Z,507.00
2023-04-22T04:16:41.571Z,507.00
2023-04-22T04:17:41.690Z,508.00
2023-04-22T04:18:41.664Z,510.00
2023-04-22T04:19:42.158Z,512.00
2023-04-22T04:20:41.768Z,511.00
2023-04-22T04:21:41.806Z,509.00
2023-04-22T04:22:41.836Z,510.00
2023-04-22T04:23:41.862Z,509.00
2023-04-22T04:24:42.115Z,506.00
2023-04-22T04:25:41.965Z,507.00
2023-04-22T04:26:41.981Z,504.00
2023-04-22T04:27:42.058Z,501.00
2023-04-22T04:28:42.086Z,501.00
2023-04-22T04:29:42.448Z,502.00
2023-04-22T04:30:42.214Z,504.00
2023-04-22T04:31:42.349Z,505.00
2023-04-22T04:32:42.308Z,505.00
2023-04-22T04:33:42.270Z,505.00
2023-04-22T04:34:42.317Z,506.00
2023-04-22T04:35:42.358Z,506.00
2023-04-22T04:36:42.394Z,505.00
2023-04-22T04:37:42.438Z,505.00
2023-04-22T04:38:42.460Z,503.00
2023-04-22T04:39:42.692Z,504.00
2023-04-22T04:40:42.589Z,505.00
2023-04-22T04:41:42.591Z,504.00
2023-04-22T04:42:42.700Z,503.00
2023-04-22T04:43:42.672Z,503.00
2023-04-22T04:44:42.730Z,506.00
2023-04-22T04:45:42.772Z,506.00
2023-04-22T04:46:42.937Z,506.00
2023-04-22T04:47:42.897Z,504.00
2023-04-22T04:48:42.849Z,504.00
2023-04-22T04:49:43.013Z,504.00
2023-04-22T04:50:43.026Z,503.00
2023-04-22T04:51:43.008Z,501.00
2023-04-22T04:52:43.036Z,501.00
2023-04-22T04:53:43.090Z,500.00
2023-04-22T04:54:43.169Z,501.00
2023-04-22T04:55:43.235Z,505.00
2023-04-22T04:56:43.252Z,503.00
2023-04-22T04:57:43.285Z,501.00
2023-04-22T04:58:43.328Z,502.00
2023-04-22T04:59:43.372Z,501.00
2023-04-22T05:00:43.412Z,504.00
2023-04-22T05:01:43.481Z,505.00
2023-04-22T05:02:43.619Z,505.00
2023-04-22T05:03:43.679Z,506.00
2023-04-22T05:04:43.748Z,508.00
2023-04-22T05:05:43.616Z,510.00
2023-04-22T05:06:43.677Z,509.00
2023-04-22T05:07:43.692Z,508.00
2023-04-22T05:08:43.762Z,509.00
2023-04-22T05:09:43.766Z,508.00
2023-04-22T05:10:43.862Z,510.00
2023-04-22T05:11:43.883Z,512.00
2023-04-22T05:12:43.917Z,512.00
2023-04-22T05:13:43.956Z,511.00
2023-04-22T05:14:44.018Z,509.00
2023-04-22T05:15:44.131Z,511.00
2023-04-22T05:16:44.095Z,510.00
2023-04-22T05:17:44.193Z,507.00
2023-04-22T05:18:44.133Z,507.00
2023-04-22T05:19:44.204Z,509.00
2023-04-22T05:20:44.236Z,507.00
2023-04-22T05:21:44.276Z,505.00
2023-04-22T05:22:44.344Z,506.00
2023-04-22T05:23:44.369Z,506.00
2023-04-22T05:24:44.429Z,504.00
2023-04-22T05:25:44.432Z,504.00
2023-04-22T05:26:44.477Z,504.00
2023-04-22T05:27:44.492Z,505.00
2023-04-22T05:28:44.555Z,508.00
2023-04-22T05:29:44.554Z,508.00
2023-04-22T05:30:44.639Z,508.00
2023-04-22T05:31:44.664Z,507.00
2023-04-22T05:32:44.746Z,507.00
2023-04-22T05:33:44.752Z,504.00
2023-04-22T05:34:44.783Z,502.00
2023-04-22T05:35:44.811Z,500.00
2023-04-22T05:36:44.840Z,498.00
2023-04-22T05:37:44.887Z,498.00
2023-04-22T05:38:44.942Z,498.00
2023-04-22T05:39:44.974Z,499.00
2023-04-22T05:40:44.994Z,497.00
2023-04-22T05:41:46.983Z,498.00
2023-04-22T05:42:45.040Z,499.00
2023-04-22T05:43:45.091Z,497.00
2023-04-22T05:44:45.139Z,497.00
2023-04-22T05:45:45.180Z,499.00
2023-04-22T05:46:45.207Z,500.00
2023-04-22T05:47:45.264Z,498.00
2023-04-22T05:48:45.255Z,497.00
2023-04-22T05:49:45.290Z,495.00
2023-04-22T05:50:45.350Z,497.00
2023-04-22T05:51:45.360Z,500.00
2023-04-22T05:52:45.429Z,499.00
2023-04-22T05:53:45.410Z,499.00
2023-04-22T05:54:45.490Z,497.00
2023-04-22T05:55:45.506Z,497.00
2023-04-22T05:56:45.520Z,493.00
2023-04-22T05:57:45.566Z,492.00
2023-04-22T05:58:45.573Z,490.00
2023-04-22T05:59:45.606Z,489.00
2023-04-22T06:00:45.676Z,485.00
2023-04-22T06:01:45.748Z,484.00
2023-04-22T06:02:45.923Z,484.00
2023-04-22T06:03:46.031Z,485.00
2023-04-22T06:04:46.053Z,489.00
2023-04-22T06:05:45.876Z,492.00
2023-04-22T06:06:45.900Z,493.00
2023-04-22T06:07:45.929Z,492.00
2023-04-22T06:08:45.989Z,494.00
2023-04-22T06:09:46.030Z,494.00
2023-04-22T06:10:46.057Z,494.00
2023-04-22T06:11:46.088Z,492.00
2023-04-22T06:12:46.125Z,493.00
2023-04-22T06:13:46.150Z,491.00
2023-04-22T06:14:46.169Z,493.00
2023-04-22T06:15:46.269Z,496.00
2023-04-22T06:16:46.211Z,497.00
2023-04-22T06:17:46.344Z,496.00
2023-04-22T06:18:46.282Z,493.00
2023-04-22T06:19:46.332Z,491.00
2023-04-22T06:20:46.401Z,492.00
2023-04-22T06:21:46.407Z,489.00
2023-04-22T06:22:46.442Z,490.00
2023-04-22T06:23:46.466Z,488.00
2023-04-22T06:24:48.193Z,489.00
2023-04-22T06:25:46.544Z,492.00
2023-04-22T06:26:46.576Z,491.00
2023-04-22T06:27:46.609Z,490.00
2023-04-22T06:28:46.630Z,489.00
2023-04-22T06:29:46.684Z,488.00
2023-04-22T06:30:46.731Z,489.00
2023-04-22T06:31:46.765Z,490.00
2023-04-22T06:32:46.839Z,490.00
2023-04-22T06:33:46.785Z,487.00
2023-04-22T06:34:46.809Z,487.00
2023-04-22T06:35:46.870Z,486.00
2023-04-22T06:36:46.874Z,487.00
2023-04-22T06:37:46.923Z,486.00
2023-04-22T06:38:46.928Z,486.00
2023-04-22T06:39:46.960Z,487.00
2023-04-22T06:40:47.029Z,485.00
2023-04-22T06:41:47.005Z,485.00
2023-04-22T06:42:47.035Z,484.00
2023-04-22T06:43:47.100Z,484.00
2023-04-22T06:44:47.100Z,486.00
2023-04-22T06:45:47.137Z,484.00
2023-04-22T06:46:47.296Z,484.00
2023-04-22T06:47:47.250Z,483.00
2023-04-22T06:48:47.209Z,481.00
2023-04-22T06:49:47.260Z,481.00
2023-04-22T06:50:47.301Z,482.00
2023-04-22T06:51:47.299Z,484.00
2023-04-22T06:52:47.316Z,483.00
2023-04-22T06:53:47.423Z,486.00
2023-04-22T06:54:47.431Z,485.00
2023-04-22T06:55:47.449Z,487.00
2023-04-22T06:56:47.468Z,485.00
2023-04-22T06:57:47.490Z,485.00
2023-04-22T06:58:47.525Z,486.00
2023-04-22T06:59:47.567Z,485.00
2023-04-22T07:00:47.620Z,486.00
2023-04-22T07:01:47.634Z,486.00
2023-04-22T07:02:47.716Z,486.00
2023-04-22T07:03:47.782Z,487.00
2023-04-22T07:04:47.747Z,488.00
2023-04-22T07:05:47.767Z,488.00
2023-04-22T07:06:47.794Z,485.00
2023-04-22T07:07:47.815Z,486.00
2023-04-22T07:08:47.834Z,485.00
2023-04-22T07:09:47.853Z,483.00
2023-04-22T07:10:47.872Z,486.00
2023-04-22T07:11:47.910Z,486.00
2023-04-22T07:12:47.971Z,486.00
2023-04-22T07:13:47.963Z,486.00
2023-04-22T07:14:48.029Z,486.00
2023-04-22T07:15:48.092Z,486.00
2023-04-22T07:16:48.237Z,486.00
2023-04-22T07:17:48.135Z,485.00
2023-04-22T07:18:48.147Z,482.00
2023-04-22T07:19:48.162Z,479.00
2023-04-22T07:20:48.225Z,481.00
2023-04-22T07:21:48.225Z,481.00
2023-04-22T07:22:48.248Z,479.00
2023-04-22T07:23:48.298Z,476.00
2023-04-22T07:24:48.316Z,476.00
2023-04-22T07:25:48.394Z,476.00
2023-04-22T07:26:48.405Z,476.00
2023-04-22T07:27:48.414Z,476.00
2023-04-22T07:28:48.442Z,477.00
2023-04-22T07:29:48.476Z,477.00
2023-04-22T07:30:48.520Z,476.00
2023-04-22T07:31:48.619Z,477.00
2023-04-22T07:32:48.946Z,481.00
2023-04-22T07:33:48.616Z,478.00
2023-04-22T07:34:48.658Z,478.00
2023-04-22T07:35:48.695Z,479.00
2023-04-22T07:36:48.722Z,482.00
2023-04-22T07:37:48.734Z,481.00
2023-04-22T07:38:48.796Z,479.00
2023-04-22T07:39:48.815Z,480.00
2023-04-22T07:40:48.828Z,478.00
2023-04-22T07:41:48.880Z,477.00
2023-04-22T07:42:48.903Z,473.00
2023-04-22T07:43:48.920Z,474.00
2023-04-22T07:44:48.977Z,474.00
2023-04-22T07:45:49.028Z,474.00
2023-04-22T07:46:49.050Z,476.00
2023-04-22T07:47:49.079Z,474.00
2023-04-22T07:48:49.087Z,471.00
2023-04-22T07:49:49.087Z,467.00
2023-04-22T07:50:49.158Z,467.00
2023-04-22T07:51:49.187Z,466.00
2023-04-22T07:52:49.240Z,466.00
2023-04-22T07:53:49.303Z,467.00
2023-04-22T07:54:49.274Z,466.00
2023-04-22T07:55:49.334Z,466.00
2023-04-22T07:56:49.323Z,467.00
2023-04-22T07:57:49.353Z,468.00
2023-04-22T07:58:49.390Z,468.00
2023-04-22T07:59:49.443Z,467.00
2023-04-22T08:00:49.487Z,469.00
2023-04-22T08:01:49.511Z,471.00
2023-04-22T08:02:49.615Z,471.00
2023-04-22T08:03:49.622Z,472.00
2023-04-22T08:04:49.582Z,473.00
2023-04-22T08:05:49.598Z,470.00
2023-04-22T08:06:49.604Z,471.00
2023-04-22T08:07:49.631Z,470.00
2023-04-22T08:08:49.681Z,471.00
2023-04-22T08:09:49.710Z,471.00
2023-04-22T08:10:49.751Z,470.00
2023-04-22T08:11:49.773Z,470.00
2023-04-22T08:12:49.798Z,471.00
2023-04-22T08:13:49.801Z,470.00
2023-04-22T08:14:49.856Z,468.00
2023-04-22T08:15:49.923Z,468.00
2023-04-22T08:16:49.901Z,468.00
2023-04-22T08:17:49.986Z,471.00
2023-04-22T08:18:49.953Z,472.00
2023-04-22T08:19:49.967Z,474.00
2023-04-22T08:20:50.000Z,474.00
2023-04-22T08:21:50.034Z,474.00
2023-04-22T08:22:50.043Z,476.00
2023-04-22T08:23:50.037Z,479.00
2023-04-22T08:24:50.063Z,479.00
2023-04-22T08:25:50.166Z,480.00
2023-04-22T08:26:50.150Z,479.00
2023-04-22T08:27:50.169Z,478.00
2023-04-22T08:28:50.193Z,476.00
2023-04-22T08:29:50.244Z,475.00
2023-04-22T08:30:50.274Z,476.00
2023-04-22T08:31:50.289Z,478.00
2023-04-22T08:32:50.333Z,477.00
2023-04-22T08:33:50.316Z,477.00
2023-04-22T08:35:50.331Z,479.00
2023-04-22T08:36:50.393Z,477.00
2023-04-22T08:37:50.417Z,478.00
2023-04-22T08:38:50.435Z,478.00
2023-04-22T08:39:50.419Z,477.00
2023-04-22T08:40:50.468Z,476.00
2023-04-22T08:41:50.462Z,475.00
2023-04-22T08:42:50.517Z,475.00
2023-04-22T08:43:50.525Z,477.00
2023-04-22T08:44:50.548Z,479.00
2023-04-22T08:45:50.578Z,481.00
2023-04-22T08:46:50.614Z,482.00
2023-04-22T08:47:50.654Z,481.00
2023-04-22T08:48:50.643Z,479.00
2023-04-22T08:49:50.650Z,476.00
2023-04-22T08:50:50.671Z,476.00
2023-04-22T08:51:50.694Z,477.00
2023-04-22T08:52:50.722Z,480.00
2023-04-22T08:53:50.747Z,481.00
2023-04-22T08:54:50.768Z,480.00
2023-04-22T08:55:50.795Z,478.00
2023-04-22T08:56:50.800Z,477.00
2023-04-22T08:57:50.823Z,476.00
2023-04-22T08:58:50.830Z,475.00
2023-04-22T08:59:50.837Z,477.00
2023-04-22T09:00:50.893Z,476.00
2023-04-22T09:01:50.937Z,476.00
2023-04-22T09:02:51.014Z,477.00
2023-04-22T09:03:51.015Z,478.00
2023-04-22T09:04:50.974Z,476.00
2023-04-22T09:05:50.989Z,475.00
2023-04-22T09:06:50.941Z,473.00
2023-04-22T09:07:51.000Z,472.00
2023-04-22T09:08:50.967Z,473.00
2023-04-22T09:09:51.014Z,474.00
2023-04-22T09:10:51.023Z,472.00
2023-04-22T09:11:51.072Z,471.00
2023-04-22T09:12:51.069Z,473.00
2023-04-22T09:13:51.082Z,475.00
2023-04-22T09:14:51.076Z,475.00
2023-04-22T09:15:51.094Z,474.00
2023-04-22T09:16:51.264Z,472.00
2023-04-22T09:17:51.174Z,471.00
2023-04-22T09:18:51.138Z,471.00
2023-04-22T09:19:51.139Z,469.00
2023-04-22T09:20:51.177Z,469.00
2023-04-22T09:21:53.629Z,469.00
2023-04-22T09:22:51.175Z,467.00
2023-04-22T09:23:51.162Z,461.00
2023-04-22T09:24:51.145Z,460.00
2023-04-22T09:25:51.156Z,462.00
2023-04-22T09:26:51.157Z,464.00
2023-04-22T09:27:51.192Z,464.00
2023-04-22T09:28:51.106Z,463.00
2023-04-22T09:29:51.136Z,462.00
2023-04-22T09:30:51.122Z,463.00
2023-04-22T09:31:51.165Z,461.00
2023-04-22T09:32:51.141Z,463.00
2023-04-22T09:33:51.191Z,466.00
2023-04-22T09:34:51.090Z,466.00
2023-04-22T09:35:51.080Z,465.00
2023-04-22T09:36:51.074Z,464.00
2023-04-22T09:37:51.076Z,465.00
2023-04-22T09:38:51.062Z,464.00
2023-04-22T09:39:51.039Z,464.00
2023-04-22T09:40:51.077Z,462.00
2023-04-22T09:41:51.052Z,462.00
2023-04-22T09:42:51.049Z,463.00
2023-04-22T09:43:51.017Z,461.00
2023-04-22T09:44:51.028Z,463.00
2023-04-22T09:45:51.064Z,462.00
2023-04-22T09:46:51.010Z,462.00
2023-04-22T09:47:51.007Z,461.00
2023-04-22T09:48:50.997Z,461.00
2023-04-22T09:49:50.987Z,461.00
2023-04-22T09:50:50.990Z,460.00
2023-04-22T09:51:50.989Z,461.00
2023-04-22T09:52:50.941Z,460.00
2023-04-22T09:53:50.948Z,460.00
2023-04-22T09:54:50.972Z,460.00
2023-04-22T09:55:50.925Z,462.00
2023-04-22T09:56:50.982Z,466.00
2023-04-22T09:57:50.926Z,466.00
2023-04-22T09:58:50.938Z,465.00
2023-04-22T09:59:50.920Z,467.00
2023-04-22T10:00:51.017Z,467.00
2023-04-22T10:01:50.973Z,467.00
2023-04-22T10:02:51.019Z,467.00
2023-04-22T10:03:50.935Z,467.00
2023-04-22T10:04:50.905Z,467.00
2023-04-22T10:05:50.917Z,467.00
2023-04-22T10:06:50.922Z,465.00
2023-04-22T10:07:50.939Z,464.00
2023-04-22T10:08:50.885Z,464.00
2023-04-22T10:09:50.860Z,463.00
2023-04-22T10:10:50.839Z,462.00
2023-04-22T10:11:50.860Z,462.00
2023-04-22T10:12:50.889Z,463.00
2023-04-22T10:13:50.889Z,463.00
2023-04-22T10:14:50.802Z,463.00
2023-04-22T10:15:50.835Z,463.00
2023-04-22T10:16:50.863Z,462.00
2023-04-22T10:17:50.834Z,459.00
2023-04-22T10:18:50.811Z,459.00
2023-04-22T10:19:50.790Z,460.00
2023-04-22T10:20:50.789Z,460.00
2023-04-22T10:21:50.832Z,459.00
2023-04-22T10:22:50.771Z,460.00
2023-04-22T10:23:50.794Z,461.00
2023-04-22T10:24:50.777Z,460.00
2023-04-22T10:25:50.748Z,462.00
2023-04-22T10:26:50.756Z,462.00
2023-04-22T10:27:50.754Z,464.00
2023-04-22T10:28:50.737Z,466.00
2023-04-22T10:29:50.703Z,465.00
2023-04-22T10:30:50.779Z,467.00
2023-04-22T10:31:50.736Z,468.00
2023-04-22T10:32:50.806Z,470.00
2023-04-22T10:33:50.686Z,470.00
2023-04-22T10:34:50.709Z,467.00
2023-04-22T10:35:50.666Z,467.00
2023-04-22T10:36:50.673Z,468.00
2023-04-22T10:37:50.861Z,467.00
2023-04-22T10:38:50.677Z,466.00
2023-04-22T10:39:50.703Z,466.00
2023-04-22T10:40:50.731Z,467.00
2023-04-22T10:41:50.862Z,468.00
2023-04-22T10:42:50.655Z,471.00
2023-04-22T10:43:50.643Z,468.00
2023-04-22T10:44:50.631Z,468.00
2023-04-22T10:45:50.632Z,469.00
2023-04-22T10:46:50.611Z,469.00
2023-04-22T10:47:50.684Z,465.00
2023-04-22T10:48:50.598Z,466.00
2023-04-22T10:49:50.612Z,466.00
2023-04-22T10:50:50.596Z,466.00
2023-04-22T10:51:50.999Z,462.00
2023-04-22T10:52:50.578Z,462.00
2023-04-22T10:53:50.569Z,461.00
2023-04-22T10:54:50.554Z,460.00
2023-04-22T10:55:50.564Z,459.00
2023-04-22T10:56:57.636Z,460.00
2023-04-22T10:57:51.562Z,459.00
2023-04-22T10:58:50.546Z,462.00
2023-04-22T10:59:50.699Z,462.00
2023-04-22T11:00:53.906Z,462.00
2023-04-22T11:01:50.560Z,462.00
2023-04-22T11:02:50.610Z,459.00
2023-04-22T11:03:50.575Z,457.00
2023-04-22T11:04:50.519Z,455.00
2023-04-22T11:05:50.502Z,454.00
2023-04-22T11:06:50.486Z,455.00
2023-04-22T11:07:50.517Z,457.00
2023-04-22T11:08:50.509Z,457.00
2023-04-22T11:09:50.476Z,457.00
2023-04-22T11:10:50.472Z,456.00
2023-04-22T11:11:50.452Z,458.00
2023-04-22T11:12:50.463Z,457.00
2023-04-22T11:13:50.558Z,456.00
2023-04-22T11:14:50.418Z,454.00
2023-04-22T11:15:50.418Z,456.00
2023-04-22T11:16:50.417Z,455.00
2023-04-22T11:17:50.490Z,457.00
2023-04-22T11:18:50.395Z,458.00
2023-04-22T11:19:50.396Z,460.00
2023-04-22T11:20:50.368Z,458.00
2023-04-22T11:21:51.323Z,458.00
2023-04-22T11:22:50.360Z,457.00
2023-04-22T11:23:50.364Z,456.00
2023-04-22T11:24:50.364Z,454.00
2023-04-22T11:25:50.353Z,456.00
2023-04-22T11:26:50.364Z,456.00
2023-04-22T11:27:50.349Z,455.00
2023-04-22T11:28:50.350Z,454.00
2023-04-22T11:29:50.329Z,454.00
2023-04-22T11:30:50.340Z,454.00
2023-04-22T11:31:50.359Z,455.00
2023-04-22T11:32:50.477Z,454.00
2023-04-22T11:33:50.480Z,454.00
2023-04-22T11:34:50.300Z,456.00
2023-04-22T11:35:50.270Z,456.00
2023-04-22T11:36:50.290Z,456.00
2023-04-22T11:37:50.285Z,455.00
2023-04-22T11:38:50.251Z,457.00
2023-04-22T11:40:13.148Z,458.00
2023-04-22T11:40:51.267Z,460.00
2023-04-22T11:41:50.241Z,462.00
2023-04-22T11:42:50.223Z,463.00
2023-04-22T11:43:50.230Z,465.00
2023-04-22T11:44:50.224Z,464.00
2023-04-22T11:45:50.238Z,463.00
2023-04-22T11:46:50.235Z,463.00
2023-04-22T11:47:50.253Z,463.00
2023-04-22T11:48:50.194Z,464.00
2023-04-22T11:49:50.199Z,463.00
2023-04-22T11:50:50.192Z,463.00
2023-04-22T11:51:50.197Z,462.00
2023-04-22T11:52:50.190Z,463.00
2023-04-22T11:53:50.166Z,463.00
2023-04-22T11:54:50.179Z,463.00
2023-04-22T11:55:50.155Z,463.00
2023-04-22T11:56:50.155Z,464.00
2023-04-22T11:57:50.176Z,468.00
2023-04-22T11:58:50.232Z,469.00
2023-04-22T11:59:50.913Z,472.00
2023-04-22T12:00:50.395Z,469.00
2023-04-22T12:01:50.454Z,469.00
2023-04-22T12:02:50.627Z,465.00
2023-04-22T12:03:50.639Z,466.00
2023-04-22T12:04:50.600Z,466.00
2023-04-22T12:05:50.683Z,465.00
2023-04-22T12:06:50.717Z,465.00
2023-04-22T12:07:50.798Z,464.00
2023-04-22T12:08:50.848Z,460.00
2023-04-22T12:09:50.907Z,460.00
2023-04-22T12:10:50.936Z,459.00
2023-04-22T12:11:51.025Z,461.00
2023-04-22T12:12:51.072Z,464.00
2023-04-22T12:13:51.107Z,464.00
2023-04-22T12:14:51.201Z,464.00
2023-04-22T12:15:51.256Z,466.00
2023-04-22T12:16:51.347Z,465.00
2023-04-22T12:17:51.406Z,466.00
2023-04-22T12:18:51.457Z,466.00
2023-04-22T12:19:51.465Z,464.00
2023-04-22T12:20:51.521Z,464.00
2023-04-22T12:21:51.562Z,462.00
2023-04-22T12:22:51.609Z,462.00
2023-04-22T12:23:51.674Z,463.00
2023-04-22T12:24:51.732Z,464.00
2023-04-22T12:25:51.780Z,465.00
2023-04-22T12:26:51.842Z,466.00
2023-04-22T12:27:51.856Z,464.00
2023-04-22T12:28:51.906Z,463.00
2023-04-22T12:29:51.969Z,463.00